createdAt,value
2018-11-13T00:00:45.254Z,21.33
2018-11-13T00:03:13.388Z,21.70
2018-11-13T00:05:41.508Z,20.03
2018-11-13T00:08:09.627Z,20.60
2018-11-13T00:10:37.752Z,17.90
2018-11-13T00:13:05.898Z,18.40
2018-11-13T00:15:34.001Z,19.63
2018-11-13T00:18:02.133Z,21.53
2018-11-13T00:20:30.240Z,25.03
2018-11-13T00:22:58.364Z,22.20
2018-11-13T00:25:26.480Z,24.03
2018-11-13T00:27:54.607Z,24.07
2018-11-13T00:30:24.210Z,23.50
2018-11-13T00:32:52.352Z,21.70
2018-11-13T00:35:21.011Z,24.37
2018-11-13T00:37:49.708Z,22.13
2018-11-13T00:40:18.431Z,23.50
2018-11-13T00:42:46.972Z,24.97
2018-11-13T00:45:15.096Z,26.93
2018-11-13T00:47:43.239Z,25.83
2018-11-13T00:50:12.920Z,19.50
2018-11-13T00:52:41.697Z,20.70
2018-11-13T00:55:09.811Z,22.30
2018-11-13T00:57:38.143Z,23.40
2018-11-13T01:00:08.499Z,26.80
2018-11-13T01:02:36.582Z,24.97
2018-11-13T01:05:10.301Z,23.00
2018-11-13T01:07:38.432Z,23.13
2018-11-13T01:10:07.784Z,16.77
2018-11-13T01:12:35.887Z,21.37
2018-11-13T01:15:04.099Z,20.80
2018-11-13T01:17:32.613Z,22.17
2018-11-13T01:20:00.322Z,18.50
2018-11-13T01:22:28.474Z,19.03
2018-11-13T01:24:56.568Z,19.27
2018-11-13T01:27:24.687Z,15.50
2018-11-13T01:29:56.313Z,18.77
2018-11-13T01:32:25.925Z,21.27
2018-11-13T01:34:54.152Z,19.80
2018-11-13T01:37:22.412Z,22.43
2018-11-13T01:39:50.535Z,21.80
2018-11-13T01:42:18.620Z,20.87
2018-11-13T01:44:46.720Z,19.60
2018-11-13T01:47:14.800Z,20.67
2018-11-13T01:49:42.904Z,20.23
2018-11-13T01:52:10.997Z,18.20
2018-11-13T01:54:39.167Z,15.40
2018-11-13T01:57:07.300Z,15.00
2018-11-13T01:59:35.388Z,16.73
2018-11-13T02:02:03.674Z,17.17
2018-11-13T02:04:32.185Z,16.30
2018-11-13T02:07:00.277Z,16.50
2018-11-13T02:09:28.375Z,17.20
2018-11-13T02:11:56.464Z,17.50
2018-11-13T02:14:24.551Z,18.27
2018-11-13T02:16:52.641Z,18.97
2018-11-13T02:19:20.731Z,21.53
2018-11-13T02:21:48.993Z,17.43
2018-11-13T02:24:17.078Z,17.80
2018-11-13T02:26:45.158Z,17.90
2018-11-13T02:29:13.344Z,18.90
2018-11-13T02:31:41.422Z,18.97
2018-11-13T02:34:09.524Z,20.50
2018-11-13T02:36:37.599Z,23.07
2018-11-13T02:39:07.668Z,20.00
2018-11-13T02:41:35.751Z,23.90
2018-11-13T02:44:03.860Z,22.63
2018-11-13T02:46:32.235Z,23.67
2018-11-13T02:49:00.359Z,21.90
2018-11-13T02:51:28.456Z,23.67
2018-11-13T02:53:56.539Z,19.23
2018-11-13T02:56:24.650Z,22.90
2018-11-13T02:58:52.733Z,23.97
2018-11-13T03:01:20.835Z,22.83
2018-11-13T03:03:48.928Z,24.97
2018-11-13T03:06:17.025Z,24.27
2018-11-13T03:08:45.137Z,25.90
2018-11-13T03:11:13.230Z,26.17
2018-11-13T03:13:41.386Z,26.67
2018-11-13T03:16:09.428Z,28.83
2018-11-13T03:18:37.552Z,27.37
2018-11-13T03:21:05.843Z,26.73
2018-11-13T03:23:33.925Z,29.07
2018-11-13T03:26:02.011Z,31.17
2018-11-13T03:28:30.093Z,31.43
2018-11-13T03:30:58.297Z,35.20
2018-11-13T03:33:26.277Z,35.00
2018-11-13T03:35:54.392Z,33.50
2018-11-13T03:38:22.497Z,34.23
2018-11-13T03:40:50.611Z,36.07
2018-11-13T03:43:18.725Z,38.87
2018-11-13T03:45:46.865Z,36.80
2018-11-13T03:48:14.960Z,35.17
2018-11-13T03:50:43.059Z,34.73
2018-11-13T03:53:11.186Z,39.43
2018-11-13T03:55:39.287Z,38.40
2018-11-13T03:58:07.396Z,36.10
2018-11-13T04:00:35.514Z,37.10
2018-11-13T04:03:04.300Z,35.03
2018-11-13T04:05:32.409Z,33.23
2018-11-13T04:08:00.503Z,33.60
2018-11-13T04:10:28.608Z,33.87
2018-11-13T04:12:56.716Z,36.23
2018-11-13T04:15:25.576Z,40.70
2018-11-13T04:17:53.964Z,32.40
2018-11-13T04:20:22.851Z,35.23
2018-11-13T04:22:50.965Z,38.20
2018-11-13T04:25:19.066Z,38.77
2018-11-13T04:27:47.169Z,35.90
2018-11-13T04:30:16.570Z,37.80
2018-11-13T04:32:44.820Z,40.63
2018-11-13T04:35:14.043Z,38.03
2018-11-13T04:37:42.152Z,40.40
2018-11-13T04:40:12.947Z,37.10
2018-11-13T04:42:42.167Z,36.20
2018-11-13T04:45:11.544Z,40.70
2018-11-13T04:47:39.673Z,34.83
2018-11-13T04:50:09.443Z,35.57
2018-11-13T04:52:37.653Z,33.80
2018-11-13T04:55:06.703Z,37.40
2018-11-13T04:57:34.830Z,35.83
2018-11-13T05:00:03.779Z,31.93
2018-11-13T05:02:31.895Z,32.87
2018-11-13T05:04:59.991Z,29.70
2018-11-13T05:07:28.111Z,33.57
2018-11-13T05:09:56.297Z,33.60
2018-11-13T05:12:24.401Z,36.27
2018-11-13T05:14:52.515Z,37.20
2018-11-13T05:17:20.632Z,34.00
2018-11-13T05:19:48.769Z,35.07
2018-11-13T05:22:16.872Z,40.33
2018-11-13T05:24:44.983Z,40.30
2018-11-13T05:27:13.100Z,41.67
2018-11-13T05:29:41.196Z,38.87
2018-11-13T05:32:09.295Z,38.50
2018-11-13T05:34:37.409Z,41.20
2018-11-13T05:37:05.571Z,47.70
2018-11-13T05:39:33.693Z,46.47
2018-11-13T05:42:01.772Z,38.93
2018-11-13T05:44:29.876Z,40.07
2018-11-13T05:46:57.983Z,40.90
2018-11-13T05:49:26.067Z,55.00
2018-11-13T05:51:54.161Z,57.40
2018-11-13T05:54:22.274Z,45.03
2018-11-13T05:56:50.359Z,73.63
2018-11-13T05:59:18.472Z,39.97
2018-11-13T06:01:46.565Z,42.77
2018-11-13T06:04:14.665Z,43.90
2018-11-13T06:06:42.751Z,46.47
2018-11-13T06:09:10.861Z,43.30
2018-11-13T06:11:39.000Z,45.37
2018-11-13T06:14:07.440Z,39.77
2018-11-13T06:16:35.315Z,46.80
2018-11-13T06:19:03.423Z,47.63
2018-11-13T06:21:31.530Z,44.20
2018-11-13T06:23:59.638Z,46.77
2018-11-13T06:26:27.736Z,60.20
2018-11-13T06:28:55.855Z,50.27
2018-11-13T06:31:23.961Z,47.40
2018-11-13T06:33:52.048Z,46.40
2018-11-13T06:36:20.147Z,34.67
2018-11-13T06:38:48.350Z,40.50
2018-11-13T06:41:16.364Z,41.83
2018-11-13T06:43:44.468Z,43.77
2018-11-13T06:46:12.584Z,37.80
2018-11-13T06:48:40.693Z,30.37
2018-11-13T06:51:08.807Z,38.43
2018-11-13T06:54:46.000Z,41.50
2018-11-13T06:57:14.103Z,33.37
2018-11-13T06:59:42.227Z,26.63
2018-11-13T07:02:10.323Z,31.90
2018-11-13T07:04:38.443Z,32.17
2018-11-13T07:07:06.558Z,37.10
2018-11-13T07:09:34.705Z,25.70
2018-11-13T07:12:02.808Z,34.37
2018-11-13T07:14:30.935Z,31.50
2018-11-13T07:16:59.043Z,26.00
2018-11-13T07:19:27.147Z,22.70
2018-11-13T07:21:55.269Z,24.77
2018-11-13T07:24:23.363Z,24.70
2018-11-13T07:26:51.523Z,28.07
2018-11-13T07:29:19.584Z,31.57
2018-11-13T07:31:47.736Z,28.20
2018-11-13T07:34:15.890Z,27.57
2018-11-13T07:36:43.973Z,22.47
2018-11-13T07:39:12.078Z,26.97
2018-11-13T07:41:40.186Z,30.97
2018-11-13T07:44:08.269Z,34.13
2018-11-13T07:46:36.408Z,30.33
2018-11-13T07:49:04.480Z,29.40
2018-11-13T07:51:32.572Z,31.10
2018-11-13T07:54:00.735Z,37.87
2018-11-13T07:56:28.799Z,34.17
2018-11-13T07:58:56.879Z,31.20
2018-11-13T08:01:24.971Z,23.83
2018-11-13T08:03:53.079Z,27.83
2018-11-13T08:06:21.239Z,25.00
2018-11-13T08:08:49.323Z,25.13
2018-11-13T08:11:17.411Z,27.00
2018-11-13T08:13:45.521Z,25.33
2018-11-13T08:16:13.626Z,36.93
2018-11-13T08:18:41.717Z,32.33
2018-11-13T08:21:09.832Z,28.90
2018-11-13T08:23:37.891Z,25.30
2018-11-13T08:26:06.359Z,27.20
2018-11-13T08:28:34.530Z,20.03
2018-11-13T08:31:02.589Z,17.80
2018-11-13T08:33:30.694Z,19.67
2018-11-13T08:35:58.828Z,19.20
2018-11-13T08:38:26.927Z,19.10
2018-11-13T08:40:55.015Z,19.90
2018-11-13T08:43:23.112Z,20.73
2018-11-13T08:45:51.192Z,23.63
2018-11-13T08:48:19.291Z,19.53
2018-11-13T08:50:47.440Z,19.10
2018-11-13T08:53:15.491Z,17.03
2018-11-13T08:55:43.580Z,16.10
2018-11-13T08:58:11.691Z,16.17
2018-11-13T09:00:39.808Z,16.03
2018-11-13T09:03:07.902Z,16.27
2018-11-13T09:05:35.986Z,15.93
2018-11-13T09:08:04.741Z,14.30
2018-11-13T09:10:32.842Z,12.13
2018-11-13T09:13:00.923Z,15.47
2018-11-13T09:15:29.013Z,13.10
2018-11-13T09:17:57.154Z,15.10
2018-11-13T09:20:25.200Z,16.83
2018-11-13T09:22:53.380Z,16.90
2018-11-13T09:25:21.760Z,16.00
2018-11-13T09:27:49.846Z,22.50
2018-11-13T09:30:19.419Z,19.57
2018-11-13T09:32:47.791Z,19.67
2018-11-13T09:35:16.661Z,17.50
2018-11-13T09:37:44.779Z,16.17
2018-11-13T09:40:15.564Z,15.13
2018-11-13T09:42:44.604Z,14.43
2018-11-13T09:45:13.504Z,15.13
2018-11-13T09:47:41.834Z,16.40
2018-11-13T09:50:11.704Z,16.93
2018-11-13T09:52:40.379Z,14.83
2018-11-13T09:55:10.127Z,12.90
2018-11-13T09:57:38.242Z,12.57
2018-11-13T10:00:22.813Z,12.23
2018-11-13T10:02:54.865Z,12.60
2018-11-13T10:05:22.592Z,10.30
2018-11-13T10:07:51.259Z,10.20
2018-11-13T10:10:19.341Z,8.80
2018-11-13T10:12:47.785Z,7.50
2018-11-13T10:15:17.300Z,7.90
2018-11-13T10:17:45.503Z,8.70
2018-11-13T10:20:14.469Z,7.73
2018-11-13T10:22:43.752Z,8.43
2018-11-13T10:25:12.151Z,7.57
2018-11-13T10:27:40.832Z,7.77
2018-11-13T10:30:13.412Z,7.57
2018-11-13T10:32:42.216Z,6.70
2018-11-13T10:35:11.496Z,7.03
2018-11-13T10:37:40.113Z,7.40
2018-11-13T10:40:10.257Z,6.57
2018-11-13T10:42:38.491Z,6.57
2018-11-13T10:45:08.547Z,5.50
2018-11-13T10:47:36.648Z,6.37
2018-11-13T10:50:07.513Z,6.40
2018-11-13T10:52:35.558Z,5.83
2018-11-13T10:55:03.681Z,5.00
2018-11-13T10:57:31.811Z,4.70
2018-11-13T10:59:59.924Z,4.87
2018-11-13T11:02:33.601Z,5.03
2018-11-13T11:05:06.884Z,5.40
2018-11-13T11:07:35.009Z,5.40
2018-11-13T11:10:03.144Z,6.00
2018-11-13T11:12:31.241Z,5.33
2018-11-13T11:14:59.387Z,4.93
2018-11-13T11:17:27.510Z,4.73
2018-11-13T11:19:55.611Z,4.93
2018-11-13T11:22:23.703Z,4.10
2018-11-13T11:24:51.883Z,3.80
2018-11-13T11:27:19.983Z,3.77
2018-11-13T11:29:48.135Z,3.50
2018-11-13T11:32:16.247Z,3.10
2018-11-13T11:34:45.081Z,2.50
2018-11-13T11:37:13.172Z,2.80
2018-11-13T11:39:41.284Z,2.60
2018-11-13T11:42:09.395Z,2.83
2018-11-13T11:44:37.553Z,2.53
2018-11-13T11:47:05.911Z,3.10
2018-11-13T11:49:34.023Z,2.50
2018-11-13T11:52:02.092Z,2.63
2018-11-13T11:54:30.175Z,2.60
2018-11-13T11:56:58.259Z,3.00
2018-11-13T11:59:26.349Z,2.17
2018-11-13T12:01:54.430Z,2.33
2018-11-13T12:04:22.512Z,2.43
2018-11-13T12:06:50.596Z,2.20
2018-11-13T12:09:18.697Z,2.40
2018-11-13T12:11:46.783Z,1.70
2018-11-13T12:14:14.914Z,2.10
2018-11-13T12:16:42.997Z,2.10
2018-11-13T12:19:11.103Z,2.37
2018-11-13T12:21:39.236Z,2.33
2018-11-13T12:24:07.328Z,2.17
2018-11-13T12:26:35.784Z,2.27
2018-11-13T12:29:03.906Z,1.90
2018-11-13T12:31:31.996Z,2.13
2018-11-13T12:34:00.101Z,2.03
2018-11-13T12:36:28.209Z,2.23
2018-11-13T12:38:56.295Z,2.30
2018-11-13T12:41:24.409Z,2.20
2018-11-13T12:43:52.513Z,2.47
2018-11-13T12:46:20.643Z,2.00
2018-11-13T12:48:48.764Z,2.33
2018-11-13T12:51:22.419Z,1.80
2018-11-13T12:53:50.559Z,1.90
2018-11-13T12:56:18.741Z,2.20
2018-11-13T12:58:46.771Z,1.83
2018-11-13T13:01:14.944Z,1.90
2018-11-13T13:03:43.027Z,1.43
2018-11-13T13:06:11.160Z,2.20
2018-11-13T13:08:39.334Z,1.80
2018-11-13T13:11:07.435Z,1.93
2018-11-13T13:13:35.546Z,2.13
2018-11-13T13:16:03.727Z,1.70
2018-11-13T13:18:31.861Z,1.60
2018-11-13T13:21:00.022Z,1.60
2018-11-13T13:23:28.180Z,1.60
2018-11-13T13:25:56.362Z,1.53
2018-11-13T13:28:24.434Z,1.57
2018-11-13T13:30:52.569Z,1.30
2018-11-13T13:33:20.769Z,1.60
2018-11-13T13:35:51.223Z,1.50
2018-11-13T13:38:19.407Z,1.43
2018-11-13T13:40:48.909Z,1.53
2018-11-13T13:43:17.612Z,1.40
2018-11-13T13:45:46.575Z,1.50
2018-11-13T13:48:14.828Z,1.57
2018-11-13T13:50:42.973Z,1.90
2018-11-13T13:53:12.172Z,1.30
2018-11-13T13:55:40.632Z,1.77
2018-11-13T13:58:08.921Z,1.20
2018-11-13T14:00:37.709Z,1.37
2018-11-13T14:03:07.061Z,1.70
2018-11-13T14:05:35.258Z,1.90
2018-11-13T14:08:04.477Z,1.23
2018-11-13T14:10:32.587Z,1.73
2018-11-13T14:13:00.760Z,1.67
2018-11-13T14:15:28.958Z,1.90
2018-11-13T14:17:57.044Z,1.93
2018-11-13T14:20:25.141Z,1.90
2018-11-13T14:22:53.244Z,2.00
2018-11-13T14:25:21.351Z,2.40
2018-11-13T14:27:49.456Z,2.00
2018-11-13T14:30:20.690Z,1.90
2018-11-13T14:32:49.464Z,2.10
2018-11-13T14:35:18.333Z,1.83
2018-11-13T14:37:46.877Z,1.90
2018-11-13T14:40:20.359Z,2.03
2018-11-13T14:42:48.825Z,1.70
2018-11-13T14:45:17.602Z,1.93
2018-11-13T14:47:46.621Z,1.90
2018-11-13T14:50:16.041Z,1.70
2018-11-13T14:52:45.970Z,1.83
2018-11-13T14:55:16.734Z,2.40
2018-11-13T14:57:45.529Z,3.10
2018-11-13T15:00:15.055Z,4.97
2018-11-13T15:02:43.752Z,4.70
2018-11-13T15:05:14.094Z,4.70
2018-11-13T15:07:43.340Z,5.73
2018-11-13T15:10:14.249Z,6.93
2018-11-13T15:12:42.552Z,6.83
2018-11-13T15:15:11.029Z,8.70
2018-11-13T15:17:39.869Z,7.60
2018-11-13T15:20:10.176Z,7.57
2018-11-13T15:22:38.326Z,6.90
2018-11-13T15:25:08.880Z,6.73
2018-11-13T15:27:37.001Z,7.70
2018-11-13T15:30:09.514Z,6.90
2018-11-13T15:32:37.632Z,7.80
2018-11-13T15:35:06.769Z,7.73
2018-11-13T15:37:35.277Z,9.47
2018-11-13T15:40:03.522Z,9.97
2018-11-13T15:42:31.643Z,9.77
2018-11-13T15:44:59.821Z,9.13
2018-11-13T15:47:27.938Z,7.83
2018-11-13T15:49:56.135Z,8.10
2018-11-13T15:52:24.397Z,7.67
2018-11-13T15:54:52.479Z,8.47
2018-11-13T15:57:20.661Z,7.50
2018-11-13T15:59:48.810Z,8.47
2018-11-13T16:02:16.955Z,7.77
2018-11-13T16:04:45.109Z,8.63
2018-11-13T16:07:13.244Z,8.30
2018-11-13T16:09:41.377Z,8.60
2018-11-13T16:12:09.536Z,8.10
2018-11-13T16:14:37.682Z,9.10
2018-11-13T16:17:05.808Z,8.67
2018-11-13T16:19:33.948Z,9.53
2018-11-13T16:22:02.106Z,9.60
2018-11-13T16:24:30.282Z,9.20
2018-11-13T16:26:58.394Z,9.93
2018-11-13T16:29:26.567Z,10.03
2018-11-13T16:31:54.758Z,10.30
2018-11-13T16:34:23.026Z,10.53
2018-11-13T16:36:51.116Z,10.80
2018-11-13T16:39:19.225Z,10.60
2018-11-13T16:41:48.116Z,10.90
2018-11-13T16:44:16.212Z,9.47
2018-11-13T16:46:44.365Z,11.60
2018-11-13T16:49:12.579Z,9.50
2018-11-13T16:51:40.685Z,10.43
2018-11-13T16:54:09.028Z,10.13
2018-11-13T16:56:42.662Z,9.73
2018-11-13T16:59:10.851Z,10.27
2018-11-13T17:01:38.998Z,10.00
2018-11-13T17:04:07.170Z,10.10
2018-11-13T17:06:35.371Z,10.77
2018-11-13T17:09:03.552Z,11.50
2018-11-13T17:11:31.668Z,10.50
2018-11-13T17:14:00.616Z,9.97
2018-11-13T17:16:28.798Z,9.20
2018-11-13T17:18:56.878Z,10.37
2018-11-13T17:21:25.005Z,9.80
2018-11-13T17:23:53.117Z,9.87
2018-11-13T17:26:21.229Z,9.73
2018-11-13T17:28:49.345Z,8.17
2018-11-13T17:31:17.515Z,9.70
2018-11-13T17:33:45.643Z,10.03
2018-11-13T17:36:13.752Z,8.97
2018-11-13T17:38:41.870Z,9.00
2018-11-13T17:41:09.997Z,8.20
2018-11-13T17:43:38.117Z,7.30
2018-11-13T17:46:06.227Z,6.73
2018-11-13T17:48:34.334Z,7.47
2018-11-13T17:51:02.424Z,7.07
2018-11-13T17:53:30.599Z,7.50
2018-11-13T17:56:00.549Z,8.00
2018-11-13T17:58:28.677Z,8.43
2018-11-13T18:00:56.775Z,8.23
2018-11-13T18:03:24.906Z,7.90
2018-11-13T18:05:53.006Z,7.27
2018-11-13T18:08:21.117Z,7.43
2018-11-13T18:10:49.248Z,7.37
2018-11-13T18:13:17.363Z,6.37
2018-11-13T18:15:45.580Z,6.97
2018-11-13T18:18:13.692Z,5.87
2018-11-13T18:20:42.036Z,6.40
2018-11-13T18:23:10.528Z,7.70
2018-11-13T18:25:38.699Z,6.70
2018-11-13T18:28:07.123Z,7.10
2018-11-13T18:30:36.516Z,7.40
2018-11-13T18:33:05.304Z,6.97
2018-11-13T18:35:34.760Z,6.17
2018-11-13T18:38:04.259Z,7.23
2018-11-13T18:40:32.469Z,7.07
2018-11-13T18:43:01.556Z,6.63
2018-11-13T18:45:31.440Z,6.53
2018-11-13T18:47:59.897Z,6.87
2018-11-13T18:50:31.163Z,6.23
2018-11-13T18:52:59.351Z,6.60
2018-11-13T18:55:27.544Z,6.20
2018-11-13T18:57:55.704Z,6.30
2018-11-13T19:00:27.962Z,6.37
2018-11-13T19:02:56.293Z,6.23
2018-11-13T19:05:25.115Z,6.50
2018-11-13T19:07:53.398Z,7.33
2018-11-13T19:10:28.335Z,7.20
2018-11-13T19:12:58.233Z,7.37
2018-11-13T19:15:27.787Z,8.00
2018-11-13T19:17:55.958Z,7.20
2018-11-13T19:20:25.265Z,7.63
2018-11-13T19:22:53.339Z,6.93
2018-11-13T19:25:24.867Z,6.33
2018-11-13T19:27:53.662Z,7.13
2018-11-13T19:30:22.059Z,6.83
2018-11-13T19:32:50.194Z,6.03
2018-11-13T19:35:18.880Z,5.70
2018-11-13T19:37:46.871Z,6.67
2018-11-13T19:40:17.050Z,5.70
2018-11-13T19:42:45.976Z,7.37
2018-11-13T19:45:14.153Z,5.87
2018-11-13T19:47:43.004Z,6.30
2018-11-13T19:50:13.148Z,5.90
2018-11-13T19:52:41.740Z,6.57
2018-11-13T19:55:11.240Z,6.90
2018-11-13T19:57:39.790Z,6.67
2018-11-13T20:00:09.472Z,6.47
2018-11-13T20:02:39.019Z,6.30
2018-11-13T20:05:08.535Z,6.10
2018-11-13T20:07:36.915Z,5.60
2018-11-13T20:10:08.557Z,6.23
2018-11-13T20:12:36.636Z,6.10
2018-11-13T20:15:04.932Z,6.30
2018-11-13T20:17:33.056Z,5.60
2018-11-13T20:20:01.185Z,5.50
2018-11-13T20:22:29.793Z,5.93
2018-11-13T20:24:57.731Z,6.40
2018-11-13T20:27:25.847Z,6.50
2018-11-13T20:29:53.975Z,6.13
2018-11-13T20:32:22.722Z,5.97
2018-11-13T20:34:51.584Z,5.90
2018-11-13T20:37:19.700Z,5.43
2018-11-13T20:39:47.791Z,5.80
2018-11-13T20:42:16.456Z,6.47
2018-11-13T20:44:44.669Z,6.37
2018-11-13T20:47:13.661Z,6.27
2018-11-13T20:49:41.761Z,6.17
2018-11-13T20:52:09.868Z,6.87
2018-11-13T20:54:38.674Z,6.70
2018-11-13T20:57:06.843Z,6.37
2018-11-13T20:59:35.022Z,5.70
2018-11-13T21:02:03.257Z,6.57
2018-11-13T21:04:31.671Z,6.47
2018-11-13T21:06:59.781Z,7.37
2018-11-13T21:09:28.451Z,6.90
2018-11-13T21:11:57.257Z,8.43
2018-11-13T21:14:25.361Z,6.93
2018-11-13T21:16:53.795Z,7.47
2018-11-13T21:19:21.792Z,7.67
2018-11-13T21:21:49.928Z,6.87
2018-11-13T21:24:18.058Z,6.83
2018-11-13T21:26:46.224Z,6.80
2018-11-13T21:29:14.319Z,6.83
2018-11-13T21:31:42.690Z,6.80
2018-11-13T21:34:10.793Z,6.60
2018-11-13T21:36:39.003Z,6.20
2018-11-13T21:39:09.488Z,6.70
2018-11-13T21:41:37.781Z,6.40
2018-11-13T21:44:07.376Z,6.90
2018-11-13T21:46:35.712Z,6.50
2018-11-13T21:49:04.436Z,7.13
2018-11-13T21:51:32.693Z,7.30
2018-11-13T21:54:01.413Z,5.97
2018-11-13T21:56:29.531Z,6.60
2018-11-13T21:58:57.641Z,6.40
2018-11-13T22:01:25.738Z,6.67
2018-11-13T22:03:53.819Z,7.37
2018-11-13T22:06:21.896Z,6.47
2018-11-13T22:08:50.017Z,6.80
2018-11-13T22:11:18.145Z,7.40
2018-11-13T22:13:46.244Z,7.20
2018-11-13T22:16:14.648Z,6.80
2018-11-13T22:18:42.564Z,6.90
2018-11-13T22:21:10.725Z,6.70
2018-11-13T22:23:38.849Z,6.80
2018-11-13T22:26:07.021Z,6.60
2018-11-13T22:28:35.687Z,7.07
2018-11-13T22:31:03.764Z,7.90
2018-11-13T22:33:31.886Z,7.07
2018-11-13T22:35:59.981Z,7.00
2018-11-13T22:38:28.091Z,6.87
2018-11-13T22:40:56.248Z,7.63
2018-11-13T22:43:24.324Z,7.27
2018-11-13T22:45:52.517Z,7.07
2018-11-13T22:48:21.652Z,6.70
2018-11-13T22:50:49.802Z,7.50
2018-11-13T22:53:18.527Z,8.20
2018-11-13T22:55:46.655Z,6.87
2018-11-13T22:58:15.335Z,8.23
2018-11-13T23:00:45.002Z,7.60
2018-11-13T23:03:14.255Z,7.27
2018-11-13T23:05:43.772Z,8.00
2018-11-13T23:08:13.257Z,8.63
2018-11-13T23:10:41.357Z,8.83
2018-11-13T23:13:10.344Z,8.57
2018-11-13T23:15:38.588Z,8.50
2018-11-13T23:18:07.882Z,7.60
2018-11-13T23:20:35.984Z,8.10
2018-11-13T23:23:05.006Z,8.30
2018-11-13T23:25:34.527Z,7.77
2018-11-13T23:28:02.865Z,7.90
2018-11-13T23:30:30.898Z,7.90
2018-11-13T23:32:59.667Z,7.70
2018-11-13T23:35:27.762Z,8.07
2018-11-13T23:37:57.036Z,7.33
2018-11-13T23:40:26.999Z,7.67
2018-11-13T23:42:55.312Z,8.40
2018-11-13T23:45:24.596Z,8.90
2018-11-13T23:47:53.289Z,7.90
2018-11-13T23:50:21.389Z,7.60
2018-11-13T23:52:50.470Z,9.00
2018-11-13T23:55:18.581Z,7.83
2018-11-13T23:57:47.288Z,8.40
